createdAt,value
2018-05-03T00:00:14.001Z,95187.58
2018-05-03T00:02:42.313Z,95180.92
2018-05-03T00:05:10.789Z,95169.58
2018-05-03T00:07:39.113Z,95166.06
2018-05-03T00:10:07.435Z,95166.55
2018-05-03T00:12:35.762Z,95169.19
2018-05-03T00:15:04.097Z,95166.27
2018-05-03T00:17:32.428Z,95161.56
2018-05-03T00:20:00.736Z,95164.97
2018-05-03T00:22:29.085Z,95169.30
2018-05-03T00:24:57.405Z,95171.86
2018-05-03T00:27:25.785Z,95169.29
2018-05-03T00:29:54.203Z,95172.34
2018-05-03T00:32:22.526Z,95182.27
2018-05-03T00:34:50.837Z,95185.67
2018-05-03T00:37:19.207Z,95187.73
2018-05-03T00:39:47.608Z,95188.09
2018-05-03T00:42:15.933Z,95191.29
2018-05-03T00:44:44.237Z,95201.15
2018-05-03T00:47:12.605Z,95194.65
2018-05-03T00:49:40.924Z,95193.08
2018-05-03T00:52:09.262Z,95183.75
2018-05-03T00:54:49.345Z,95193.39
2018-05-03T00:57:17.734Z,95178.03
2018-05-03T00:59:46.111Z,95179.05
2018-05-03T01:02:14.437Z,95183.16
2018-05-03T01:04:42.755Z,95189.28
2018-05-03T01:07:11.144Z,95190.69
2018-05-03T01:09:39.451Z,95192.42
2018-05-03T01:12:07.853Z,95183.56
2018-05-03T01:14:36.198Z,95182.95
2018-05-03T01:17:04.508Z,95182.73
2018-05-03T01:19:32.896Z,95186.18
2018-05-03T01:22:01.273Z,95184.02
2018-05-03T01:24:29.644Z,95180.36
2018-05-03T01:26:57.964Z,95181.59
2018-05-03T01:29:26.399Z,95182.89
2018-05-03T01:31:54.725Z,95187.39
2018-05-03T01:34:23.060Z,95190.86
2018-05-03T01:36:51.452Z,95193.86
2018-05-03T01:39:19.788Z,95190.21
2018-05-03T01:41:48.121Z,95183.84
2018-05-03T01:44:16.453Z,95182.20
2018-05-03T01:46:44.845Z,95186.68
2018-05-03T01:49:13.236Z,95195.23
2018-05-03T01:51:41.542Z,95192.27
2018-05-03T01:54:09.840Z,95202.50
2018-05-03T01:56:38.253Z,95198.24
2018-05-03T01:59:06.683Z,95198.35
2018-05-03T02:01:35.009Z,95192.56
2018-05-03T02:04:03.406Z,95188.59
2018-05-03T02:06:31.728Z,95188.30
2018-05-03T02:09:00.047Z,95192.13
2018-05-03T02:11:28.394Z,95193.80
2018-05-03T02:13:56.800Z,95197.75
2018-05-03T02:16:25.209Z,95211.09
2018-05-03T02:18:53.571Z,95211.39
2018-05-03T02:21:22.026Z,95206.66
2018-05-03T02:23:50.341Z,95203.94
2018-05-03T02:26:18.742Z,95204.88
2018-05-03T02:28:47.109Z,95206.41
2018-05-03T02:31:15.515Z,95210.27
2018-05-03T02:33:43.837Z,95219.14
2018-05-03T02:36:12.185Z,95228.23
2018-05-03T02:38:40.634Z,95234.13
2018-05-03T02:41:08.937Z,95233.59
2018-05-03T02:43:37.265Z,95236.22
2018-05-03T02:46:05.581Z,95246.55
2018-05-03T02:48:33.999Z,95243.33
2018-05-03T02:51:02.393Z,95255.86
2018-05-03T02:53:30.764Z,95255.98
2018-05-03T02:55:59.072Z,95264.77
2018-05-03T02:58:39.296Z,95261.58
2018-05-03T03:01:25.297Z,95273.78
2018-05-03T03:04:11.027Z,95270.31
2018-05-03T03:10:34.915Z,95276.44
2018-05-03T03:16:53.451Z,95271.19
2018-05-03T03:23:08.324Z,95273.37
2018-05-03T03:29:32.911Z,95279.80
2018-05-03T03:32:15.133Z,95275.16
2018-05-03T03:34:43.529Z,95278.23
2018-05-03T03:37:32.596Z,95285.62
2018-05-03T03:40:18.305Z,95285.15
2018-05-03T03:45:44.215Z,95267.22
2018-05-03T03:48:12.589Z,95268.68
2018-05-03T03:50:40.908Z,95271.11
2018-05-03T03:53:09.272Z,95272.98
2018-05-03T03:55:37.550Z,95275.87
2018-05-03T03:58:05.885Z,95277.24
2018-05-03T04:00:34.275Z,95271.69
2018-05-03T04:03:02.580Z,95269.97
2018-05-03T04:05:30.927Z,95265.38
2018-05-03T04:07:59.309Z,95260.59
2018-05-03T04:10:27.681Z,95254.89
2018-05-03T04:12:55.992Z,95267.82
2018-05-03T04:15:24.395Z,95273.77
2018-05-03T04:18:04.808Z,95275.55
2018-05-03T04:20:46.570Z,95272.46
2018-05-03T04:23:37.272Z,95274.00
2018-05-03T04:26:05.608Z,95265.09
2018-05-03T04:28:33.982Z,95266.03
2018-05-03T04:31:02.374Z,95270.53
2018-05-03T04:33:30.683Z,95282.33
2018-05-03T04:35:59.017Z,95279.16
2018-05-03T04:38:27.382Z,95285.16
2018-05-03T04:40:55.716Z,95290.20
2018-05-03T04:43:24.019Z,95314.83
2018-05-03T04:45:52.429Z,95302.59
2018-05-03T04:48:20.777Z,95302.16
2018-05-03T04:50:49.131Z,95306.92
2018-05-03T04:53:17.528Z,95305.87
2018-05-03T04:55:45.868Z,95313.06
2018-05-03T04:58:14.228Z,95320.00
2018-05-03T05:00:42.529Z,95330.36
2018-05-03T05:03:10.939Z,95328.37
2018-05-03T05:05:39.251Z,95327.09
2018-05-03T05:08:07.660Z,95328.16
2018-05-03T05:10:35.983Z,95336.05
2018-05-03T05:13:04.307Z,95333.41
2018-05-03T05:15:32.629Z,95332.36
2018-05-03T05:18:01.084Z,95332.27
2018-05-03T05:20:29.380Z,95334.16
2018-05-03T05:22:57.719Z,95339.20
2018-05-03T05:25:26.032Z,95344.77
2018-05-03T05:27:54.380Z,95351.36
2018-05-03T05:30:22.713Z,95350.47
2018-05-03T05:32:51.048Z,95341.58
2018-05-03T05:35:19.460Z,95333.74
2018-05-03T05:37:48.508Z,95343.20
2018-05-03T05:40:16.836Z,95337.36
2018-05-03T05:42:45.256Z,95351.05
2018-05-03T05:45:13.554Z,95350.47
2018-05-03T05:47:41.855Z,95354.80
2018-05-03T05:50:10.192Z,95350.44
2018-05-03T05:52:38.492Z,95354.48
2018-05-03T05:55:06.835Z,95359.56
2018-05-03T05:57:35.207Z,95352.66
2018-05-03T06:00:03.557Z,95352.37
2018-05-03T06:02:31.873Z,95357.56
2018-05-03T06:05:00.217Z,95363.00
2018-05-03T06:07:28.584Z,95356.45
2018-05-03T06:09:56.963Z,95359.03
2018-05-03T06:12:25.289Z,95364.94
2018-05-03T06:14:53.713Z,95361.41
2018-05-03T06:17:22.023Z,95366.08
2018-05-03T06:19:50.478Z,95369.51
2018-05-03T06:22:18.853Z,95367.17
2018-05-03T06:24:47.184Z,95372.59
2018-05-03T06:27:15.490Z,95374.56
2018-05-03T06:29:43.890Z,95373.45
2018-05-03T06:32:12.194Z,95380.33
2018-05-03T06:34:40.534Z,95379.63
2018-05-03T06:37:08.956Z,95383.91
2018-05-03T06:39:37.385Z,95378.36
2018-05-03T06:42:05.697Z,95385.47
2018-05-03T06:44:34.013Z,95384.28
2018-05-03T06:47:02.422Z,95394.88
2018-05-03T06:49:30.728Z,95397.64
2018-05-03T06:51:59.056Z,95399.97
2018-05-03T06:54:27.368Z,95389.66
2018-05-03T06:56:55.725Z,95400.33
2018-05-03T06:59:24.046Z,95391.86
2018-05-03T07:01:52.384Z,95398.50
2018-05-03T07:04:20.871Z,95397.63
2018-05-03T07:06:49.112Z,95399.81
2018-05-03T07:09:17.413Z,95401.47
2018-05-03T07:11:45.749Z,95404.27
2018-05-03T07:14:14.062Z,95404.22
2018-05-03T07:16:42.493Z,95405.41
2018-05-03T07:19:10.797Z,95407.95
2018-05-03T07:21:39.207Z,95409.92
2018-05-03T07:24:07.546Z,95409.41
2018-05-03T07:26:35.894Z,95411.50
2018-05-03T07:29:04.205Z,95409.66
2018-05-03T07:31:32.573Z,95413.28
2018-05-03T07:34:00.881Z,95419.98
2018-05-03T07:36:29.324Z,95412.42
2018-05-03T07:38:57.656Z,95414.57
2018-05-03T07:41:25.988Z,95419.81
2018-05-03T07:43:54.402Z,95420.19
2018-05-03T07:46:22.794Z,95419.34
2018-05-03T07:48:51.102Z,95425.17
2018-05-03T07:51:19.463Z,95429.45
2018-05-03T07:53:47.832Z,95425.97
2018-05-03T07:56:16.194Z,95424.28
2018-05-03T07:58:44.590Z,95425.41
2018-05-03T08:01:12.895Z,95420.84
2018-05-03T08:03:41.223Z,95419.77
2018-05-03T08:06:09.608Z,95418.41
2018-05-03T08:08:37.939Z,95427.96
2018-05-03T08:11:06.251Z,95429.13
2018-05-03T08:13:34.585Z,95429.88
2018-05-03T08:16:02.897Z,95420.41
2018-05-03T08:18:31.221Z,95414.80
2018-05-03T08:20:59.573Z,95417.70
2018-05-03T08:23:27.993Z,95414.35
2018-05-03T08:25:56.284Z,95414.65
2018-05-03T08:28:24.633Z,95429.16
2018-05-03T08:30:52.948Z,95435.56
2018-05-03T08:33:21.293Z,95434.91
2018-05-03T08:35:49.606Z,95428.63
2018-05-03T08:38:17.936Z,95427.29
2018-05-03T08:40:46.250Z,95428.47
2018-05-03T08:43:14.560Z,95439.06
2018-05-03T08:45:42.974Z,95437.47
2018-05-03T08:48:11.291Z,95437.32
2018-05-03T08:50:39.621Z,95437.74
2018-05-03T08:53:07.942Z,95441.94
2018-05-03T08:55:36.381Z,95435.84
2018-05-03T08:58:04.679Z,95434.52
2018-05-03T09:00:33.113Z,95442.66
2018-05-03T09:03:01.427Z,95444.16
2018-05-03T09:05:29.764Z,95446.95
2018-05-03T09:07:58.148Z,95450.90
2018-05-03T09:10:26.524Z,95446.86
2018-05-03T09:12:54.838Z,95448.50
2018-05-03T09:15:23.180Z,95446.36
2018-05-03T09:17:51.492Z,95451.55
2018-05-03T09:20:19.838Z,95459.37
2018-05-03T09:22:48.150Z,95462.41
2018-05-03T09:25:16.485Z,95460.33
2018-05-03T09:27:44.852Z,95480.29
2018-05-03T09:30:13.189Z,95478.06
2018-05-03T09:32:41.517Z,95482.55
2018-05-03T09:35:09.856Z,95479.10
2018-05-03T09:37:38.181Z,95480.60
2018-05-03T09:40:06.497Z,95482.89
2018-05-03T09:42:35.739Z,95480.70
2018-05-03T09:45:04.052Z,95494.16
2018-05-03T09:47:32.386Z,95485.80
2018-05-03T09:50:00.782Z,95484.64
2018-05-03T09:52:29.123Z,95485.81
2018-05-03T09:54:57.437Z,95476.09
2018-05-03T09:57:25.822Z,95484.64
2018-05-03T09:59:54.133Z,95482.11
2018-05-03T10:02:22.566Z,95475.83
2018-05-03T10:04:50.919Z,95475.98
2018-05-03T10:07:19.221Z,95472.11
2018-05-03T10:09:47.541Z,95471.04
2018-05-03T10:12:15.975Z,95468.97
2018-05-03T10:14:44.285Z,95473.92
2018-05-03T10:17:12.629Z,95467.25
2018-05-03T10:19:40.993Z,95460.58
2018-05-03T10:22:09.333Z,95458.33
2018-05-03T10:24:37.627Z,95458.78
2018-05-03T10:27:05.978Z,95452.40
2018-05-03T10:29:34.279Z,95452.80
2018-05-03T10:32:02.589Z,95449.86
2018-05-03T10:34:30.998Z,95449.95
2018-05-03T10:36:59.298Z,95454.60
2018-05-03T10:39:27.748Z,95449.17
2018-05-03T10:41:56.129Z,95452.70
2018-05-03T10:44:24.396Z,95452.40
2018-05-03T10:46:52.722Z,95450.44
2018-05-03T10:49:21.150Z,95438.56
2018-05-03T10:51:49.461Z,95436.55
2018-05-03T10:54:17.793Z,95435.77
2018-05-03T10:56:46.112Z,95444.55
2018-05-03T10:59:14.460Z,95443.48
2018-05-03T11:01:42.769Z,95440.96
2018-05-03T11:04:11.117Z,95439.39
2018-05-03T11:06:39.435Z,95444.91
2018-05-03T11:09:07.865Z,95435.03
2018-05-03T11:11:36.250Z,95435.20
2018-05-03T11:14:04.630Z,95434.95
2018-05-03T11:16:32.953Z,95428.19
2018-05-03T11:19:01.277Z,95429.40
2018-05-03T11:21:29.627Z,95427.52
2018-05-03T11:23:57.948Z,95436.56
2018-05-03T11:26:26.353Z,95437.59
2018-05-03T11:28:54.646Z,95435.16
2018-05-03T11:31:23.133Z,95432.84
2018-05-03T11:33:51.452Z,95430.86
2018-05-03T11:36:19.827Z,95428.89
2018-05-03T11:38:48.154Z,95426.44
2018-05-03T11:41:16.476Z,95430.48
2018-05-03T11:43:45.000Z,95433.11
2018-05-03T11:46:14.253Z,95422.02
2018-05-03T11:48:42.652Z,95431.08
2018-05-03T11:51:11.013Z,95434.11
2018-05-03T11:53:39.402Z,95438.14
2018-05-03T11:56:07.701Z,95435.60
2018-05-03T11:58:36.009Z,95435.16
2018-05-03T12:01:04.371Z,95436.12
2018-05-03T12:03:32.671Z,95434.42
2018-05-03T12:06:01.059Z,95435.10
2018-05-03T12:08:29.320Z,95434.77
2018-05-03T12:10:57.631Z,95432.47
2018-05-03T12:13:25.960Z,95430.73
2018-05-03T12:15:54.436Z,95427.28
2018-05-03T12:18:22.740Z,95431.36
2018-05-03T12:20:51.090Z,95425.83
2018-05-03T12:23:19.411Z,95431.91
2018-05-03T12:25:47.729Z,95432.89
2018-05-03T12:28:16.123Z,95426.83
2018-05-03T12:30:44.435Z,95429.55
2018-05-03T12:33:12.741Z,95427.86
2018-05-03T12:35:41.131Z,95424.90
2018-05-03T12:38:09.457Z,95429.93
2018-05-03T12:40:37.771Z,95426.79
2018-05-03T12:43:06.150Z,95427.83
2018-05-03T12:45:34.521Z,95428.56
2018-05-03T12:48:02.900Z,95426.79
2018-05-03T12:50:31.248Z,95421.81
2018-05-03T12:52:59.574Z,95427.03
2018-05-03T12:55:27.934Z,95424.47
2018-05-03T12:57:56.239Z,95425.16
2018-05-03T13:00:24.591Z,95413.30
2018-05-03T13:02:52.965Z,95417.63
2018-05-03T13:05:21.282Z,95408.08
2018-05-03T13:07:49.604Z,95414.41
2018-05-03T13:10:17.925Z,95423.09
2018-05-03T13:12:46.268Z,95419.72
2018-05-03T13:15:14.589Z,95410.75
2018-05-03T13:17:42.889Z,95414.41
2018-05-03T13:20:11.268Z,95415.93
2018-05-03T13:22:39.512Z,95416.19
2018-05-03T13:25:07.853Z,95413.37
2018-05-03T13:27:36.228Z,95414.18
2018-05-03T13:30:04.560Z,95409.92
2018-05-03T13:32:32.889Z,95410.69
2018-05-03T13:35:01.196Z,95408.53
2018-05-03T13:37:30.440Z,95404.64
2018-05-03T13:39:58.770Z,95415.45
2018-05-03T13:42:27.999Z,95401.27
2018-05-03T13:44:56.311Z,95401.41
2018-05-03T13:47:24.670Z,95391.53
2018-05-03T13:49:52.966Z,95394.19
2018-05-03T13:52:21.354Z,95380.27
2018-05-03T13:54:49.666Z,95381.30
2018-05-03T13:57:17.970Z,95380.82
2018-05-03T13:59:46.303Z,95376.42
2018-05-03T14:02:14.660Z,95376.19
2018-05-03T14:04:43.045Z,95372.67
2018-05-03T14:07:11.535Z,95367.23
2018-05-03T14:09:39.689Z,95372.28
2018-05-03T14:12:08.008Z,95372.63
2018-05-03T14:14:36.387Z,95366.39
2018-05-03T14:17:04.682Z,95367.19
2018-05-03T14:19:32.996Z,95367.16
2018-05-03T14:22:01.381Z,95358.58
2018-05-03T14:24:29.694Z,95346.64
2018-05-03T14:26:58.028Z,95343.20
2018-05-03T14:29:26.361Z,95344.89
2018-05-03T14:31:54.666Z,95341.06
2018-05-03T14:34:23.058Z,95337.78
2018-05-03T14:36:51.453Z,95348.55
2018-05-03T14:39:19.753Z,95344.25
2018-05-03T14:41:48.068Z,95338.75
2018-05-03T14:44:16.405Z,95344.44
2018-05-03T14:46:44.721Z,95343.45
2018-05-03T14:49:13.142Z,95351.86
2018-05-03T14:51:41.468Z,95357.94
2018-05-03T14:54:09.829Z,95358.50
2018-05-03T14:56:38.138Z,95359.96
2018-05-03T14:59:06.583Z,95361.17
2018-05-03T15:01:34.889Z,95362.27
2018-05-03T15:04:03.237Z,95364.63
2018-05-03T15:06:31.612Z,95368.33
2018-05-03T15:08:59.865Z,95360.20
2018-05-03T15:11:28.220Z,95364.42
2018-05-03T15:13:56.608Z,95368.38
2018-05-03T15:16:24.943Z,95367.14
2018-05-03T15:18:53.226Z,95369.60
2018-05-03T15:21:21.640Z,95374.41
2018-05-03T15:23:49.963Z,95377.73
2018-05-03T15:26:18.335Z,95389.95
2018-05-03T15:28:46.642Z,95386.83
2018-05-03T15:31:14.962Z,95393.31
2018-05-03T15:33:43.341Z,95392.73
2018-05-03T15:36:11.597Z,95390.99
2018-05-03T15:38:39.908Z,95399.88
2018-05-03T15:41:08.276Z,95397.14
2018-05-03T15:43:36.638Z,95397.33
2018-05-03T15:46:04.982Z,95400.11
2018-05-03T15:48:33.365Z,95397.97
2018-05-03T15:51:01.698Z,95404.05
2018-05-03T15:53:30.012Z,95403.25
2018-05-03T15:55:58.426Z,95405.80
2018-05-03T15:58:26.845Z,95413.46
2018-05-03T16:00:55.181Z,95412.49
2018-05-03T16:03:23.513Z,95409.95
2018-05-03T16:05:51.943Z,95413.09
2018-05-03T16:08:20.260Z,95415.05
2018-05-03T16:10:48.593Z,95418.19
2018-05-03T16:13:16.925Z,95414.84
2018-05-03T16:15:45.261Z,95420.36
2018-05-03T16:18:13.577Z,95409.16
2018-05-03T16:20:42.047Z,95416.62
2018-05-03T16:23:10.421Z,95417.40
2018-05-03T16:25:38.742Z,95421.12
2018-05-03T16:28:07.280Z,95418.97
2018-05-03T16:30:35.587Z,95420.75
2018-05-03T16:33:03.904Z,95415.03
2018-05-03T16:35:32.416Z,95421.50
2018-05-03T16:38:00.753Z,95419.16
2018-05-03T16:40:29.173Z,95421.48
2018-05-03T16:42:57.509Z,95422.67
2018-05-03T16:45:25.838Z,95423.84
2018-05-03T16:47:54.155Z,95428.55
2018-05-03T16:50:22.583Z,95427.52
2018-05-03T16:52:50.880Z,95430.72
2018-05-03T16:55:19.292Z,95428.11
2018-05-03T16:57:48.203Z,95430.43
2018-05-03T17:00:16.521Z,95430.66
2018-05-03T17:02:44.842Z,95435.73
2018-05-03T17:05:13.176Z,95437.06
2018-05-03T17:07:41.494Z,95429.09
2018-05-03T17:10:09.810Z,95440.67
2018-05-03T17:12:38.150Z,95436.35
2018-05-03T17:15:06.466Z,95439.88
2018-05-03T17:17:34.789Z,95436.13
2018-05-03T17:20:03.201Z,95437.06
2018-05-03T17:22:31.561Z,95436.47
2018-05-03T17:24:59.885Z,95439.41
2018-05-03T17:27:28.217Z,95436.63
2018-05-03T17:29:56.537Z,95435.84
2018-05-03T17:32:24.851Z,95435.87
2018-05-03T17:34:53.171Z,95428.63
2018-05-03T17:37:21.529Z,95432.15
2018-05-03T17:39:49.848Z,95433.73
2018-05-03T17:42:18.179Z,95433.08
2018-05-03T17:44:46.556Z,95440.30
2018-05-03T17:47:14.934Z,95449.51
2018-05-03T17:49:43.262Z,95444.16
2018-05-03T17:52:11.598Z,95441.41
2018-05-03T17:54:39.945Z,95452.63
2018-05-03T17:57:08.365Z,95451.98
2018-05-03T17:59:36.689Z,95462.56
2018-05-03T18:02:05.005Z,95470.42
2018-05-03T18:04:33.434Z,95469.84
2018-05-03T18:07:01.803Z,95476.94
2018-05-03T18:09:30.105Z,95469.37
2018-05-03T18:11:58.437Z,95478.17
2018-05-03T18:14:26.767Z,95494.44
2018-05-03T18:16:55.085Z,95498.47
2018-05-03T18:19:23.413Z,95504.09
2018-05-03T18:21:51.722Z,95508.95
2018-05-03T18:24:20.033Z,95518.11
2018-05-03T18:26:48.368Z,95517.42
2018-05-03T18:29:16.690Z,95525.05
2018-05-03T18:31:45.024Z,95534.63
2018-05-03T18:34:13.369Z,95549.44
2018-05-03T18:36:41.678Z,95554.12
2018-05-03T18:39:09.997Z,95553.32
2018-05-03T18:41:38.386Z,95550.65
2018-05-03T18:44:06.747Z,95556.29
2018-05-03T18:46:35.015Z,95561.94
2018-05-03T18:49:03.276Z,95557.42
2018-05-03T18:51:31.597Z,95556.52
2018-05-03T18:53:59.921Z,95563.00
2018-05-03T18:56:28.408Z,95558.88
2018-05-03T18:58:56.708Z,95565.52
2018-05-03T19:01:25.062Z,95564.59
2018-05-03T19:03:53.416Z,95569.08
2018-05-03T19:06:21.816Z,95578.23
2018-05-03T19:08:50.298Z,95586.87
2018-05-03T19:11:18.616Z,95584.54
2018-05-03T19:13:46.925Z,95582.80
2018-05-03T19:16:15.337Z,95593.48
2018-05-03T19:18:43.713Z,95601.22
2018-05-03T19:21:12.083Z,95600.92
2018-05-03T19:23:40.414Z,95599.77
2018-05-03T19:26:08.718Z,95599.98
2018-05-03T19:28:37.113Z,95593.34
2018-05-03T19:31:05.501Z,95602.73
2018-05-03T19:33:33.821Z,95592.56
2018-05-03T19:36:02.152Z,95594.74
2018-05-03T19:38:30.525Z,95601.97
2018-05-03T19:40:58.882Z,95602.16
2018-05-03T19:43:27.267Z,95596.79
2018-05-03T19:45:55.569Z,95601.45
2018-05-03T19:48:23.939Z,95598.71
2018-05-03T19:50:52.321Z,95596.91
2018-05-03T19:53:20.633Z,95596.89
2018-05-03T19:55:49.018Z,95596.39
2018-05-03T19:58:17.322Z,95600.19
2018-05-03T20:00:45.626Z,95596.93
2018-05-03T20:03:13.957Z,95601.20
2018-05-03T20:05:42.277Z,95599.80
2018-05-03T20:08:10.663Z,95607.88
2018-05-03T20:10:38.985Z,95600.96
2018-05-03T20:13:07.287Z,95603.68
2018-05-03T20:15:35.701Z,95600.63
2018-05-03T20:18:04.045Z,95601.58
2018-05-03T20:20:32.449Z,95603.81
2018-05-03T20:23:00.766Z,95600.44
2018-05-03T20:25:29.085Z,95603.55
2018-05-03T20:27:57.428Z,95602.61
2018-05-03T20:30:25.757Z,95601.20
2018-05-03T20:32:54.270Z,95598.47
2018-05-03T20:35:22.452Z,95595.36
2018-05-03T20:37:50.794Z,95593.34
2018-05-03T20:40:19.172Z,95598.22
2018-05-03T20:42:47.558Z,95594.92
2018-05-03T20:45:15.863Z,95596.58
2018-05-03T20:47:44.201Z,95591.45
2018-05-03T20:50:12.527Z,95595.77
2018-05-03T20:52:40.833Z,95589.44
2018-05-03T20:55:09.148Z,95592.55
2018-05-03T20:57:37.516Z,95591.80
2018-05-03T21:00:05.800Z,95591.43
2018-05-03T21:02:34.124Z,95593.56
2018-05-03T21:05:02.464Z,95590.23
2018-05-03T21:07:30.782Z,95591.59
2018-05-03T21:09:59.192Z,95586.50
2018-05-03T21:12:27.515Z,95583.25
2018-05-03T21:14:55.858Z,95585.22
2018-05-03T21:17:24.173Z,95583.44
2018-05-03T21:19:52.535Z,95575.95
2018-05-03T21:22:20.849Z,95576.83
2018-05-03T21:24:49.190Z,95584.00
2018-05-03T21:27:17.503Z,95581.33
2018-05-03T21:29:45.818Z,95579.16
2018-05-03T21:32:14.266Z,95583.53
2018-05-03T21:34:42.604Z,95584.55
2018-05-03T21:37:10.938Z,95583.00
2018-05-03T21:39:39.343Z,95580.89
2018-05-03T21:42:07.657Z,95584.18
2018-05-03T21:44:35.997Z,95582.05
2018-05-03T21:47:04.330Z,95584.88
2018-05-03T21:49:32.734Z,95582.00
2018-05-03T21:52:01.138Z,95593.68
2018-05-03T21:54:29.457Z,95596.73
2018-05-03T21:56:57.773Z,95601.93
2018-05-03T21:59:26.089Z,95600.67
2018-05-03T22:01:54.431Z,95606.27
2018-05-03T22:04:22.729Z,95612.48
2018-05-03T22:06:51.080Z,95623.66
2018-05-03T22:09:19.469Z,95627.35
2018-05-03T22:11:47.837Z,95624.70
2018-05-03T22:14:16.217Z,95624.17
2018-05-03T22:16:44.529Z,95622.41
2018-05-03T22:19:12.865Z,95628.75
2018-05-03T22:21:41.181Z,95633.48
2018-05-03T22:24:09.516Z,95636.00
2018-05-03T22:26:37.824Z,95630.73
2018-05-03T22:29:06.137Z,95632.78
2018-05-03T22:31:34.456Z,95639.06
2018-05-03T22:34:02.772Z,95645.94
2018-05-03T22:36:31.109Z,95641.87
2018-05-03T22:38:59.490Z,95639.47
2018-05-03T22:43:58.017Z,95631.73
2018-05-03T22:46:26.337Z,95635.10
2018-05-03T22:48:54.665Z,95631.48
2018-05-03T22:51:22.967Z,95637.34
2018-05-03T22:53:51.390Z,95642.71
2018-05-03T22:56:19.772Z,95638.34
2018-05-03T22:58:48.153Z,95637.28
2018-05-03T23:01:16.546Z,95636.67
2018-05-03T23:03:44.853Z,95637.75
2018-05-03T23:06:13.175Z,95637.47
2018-05-03T23:08:41.552Z,95637.50
2018-05-03T23:11:09.860Z,95633.41
2018-05-03T23:13:38.168Z,95634.26
2018-05-03T23:16:06.534Z,95641.55
2018-05-03T23:18:34.858Z,95645.43
2018-05-03T23:21:03.166Z,95651.14
2018-05-03T23:23:31.506Z,95654.02
2018-05-03T23:25:59.819Z,95645.67
2018-05-03T23:28:28.173Z,95646.95
2018-05-03T23:30:56.568Z,95648.70
2018-05-03T23:33:24.893Z,95649.73
2018-05-03T23:35:53.223Z,95648.01
2018-05-03T23:38:21.575Z,95652.46
2018-05-03T23:40:49.892Z,95662.38
2018-05-03T23:43:18.260Z,95661.38
2018-05-03T23:45:46.592Z,95664.50
2018-05-03T23:48:14.905Z,95668.53
2018-05-03T23:50:43.224Z,95660.39
2018-05-03T23:53:11.555Z,95665.86
2018-05-03T23:55:39.934Z,95677.39
2018-05-03T23:58:08.246Z,95676.42
